Clayton, Georgia
Current Conditions -  °F | °C
As of 5:15 PM on Friday 24 Oct 2014 (Local Time) from KTOC Reporting Station
Clear Clear  
Wind Chill: 21°   Ceiling: Unl
Heat Index: 21°   Visibility: 10mi
Dew Point:   Wind: 3mph
Humidity: 43%   Direction: 200°SSW
Pressure: 29.99"   Gusts: NA
Location:  34.88°N, 83.4°W
Report Text: KTOC 242115Z AUTO 20003KT 10SM CLR 21/08 A2999 RMK AO2 T02090078
Loading
Personal Weather Stations






























Interactive Weather Map
Tropical Storm Tracking
New forecast layout! Learn more

10-Day Weather Forecast

Advertisements
Track Severe Weather on mobile